Flight Track Log - Related Links

Times and Time Zones

All times are in EDT time to prevent confusion due to time zone crossing. See the ASQ5208 flight status page for this flight to view local times or setup timezone preferences in your user account.

Time Position Orientation Groundspeed Altitude Reporting Facility
EDT Latitude Longitude Course Direction KTS MPH feet Rate Location/Type
Wed 07:47:54 AM 36.3844 -82.5069 215° Southwest 201 231 5,000  Level Atlanta Center
Wed 07:48:54 AM 36.3267 -82.5594 216° Southwest 246 283 8,100 2,500 Climbing Atlanta Center
Wed 07:49:54 AM 36.2669 -82.6147 217° Southwest 264 304 10,000 1,550 Climbing Atlanta Center
Wed 07:50:54 AM 36.1989 -82.6750 216° Southwest 289 333 11,200 1,350 Climbing Atlanta Center
Wed 07:51:54 AM 36.1286 -82.7406 217° Southwest 316 364 12,700 1,550 Climbing Atlanta Center
Wed 07:52:00 AM 36.1200 -82.7263 215° Southwest  Level FlightAware Approximate
Wed 07:52:54 AM 36.0542 -82.8111 217° Southwest 329 379 14,300  Level Atlanta Center
Wed 07:53:00 AM 36.0608 -82.7781 215° Southwest  Level FlightAware Approximate
Wed 07:53:54 AM 35.9797 -82.8789 216° Southwest 340 391 15,800  Level Atlanta Center
Wed 07:54:54 AM 35.9075 -82.9439 216° Southwest 332 382 17,300 1,400 Climbing Atlanta Center
Wed 07:55:54 AM 35.8350 -83.0092 216° Southwest 332 382 18,600 1,400 Climbing Atlanta Center
Wed 07:56:54 AM 35.7581 -83.0611 209° Southwest 332 382 20,100 1,500 Climbing Atlanta Center
Wed 07:57:54 AM 35.6708 -83.0800 190° South 322 371 21,600 950 Climbing Atlanta Center
Wed 07:58:54 AM 35.5833 -83.1017 191° South 322 371 22,000 200 Climbing Atlanta Center
Wed 07:59:54 AM 35.4936 -83.1206 190° South 322 371 22,000  Level Atlanta Center
Wed 08:00:54 AM 35.4083 -83.1392 190° South 322 371 22,000  Level Atlanta Center
Wed 08:01:54 AM 35.3208 -83.1581 190° South 327 376 22,000  Level Atlanta Center
Wed 08:02:54 AM 35.2353 -83.1792 191° South 315 362 22,000 -350 Level Atlanta Center
Wed 08:03:54 AM 35.1478 -83.2006 191° South 315 362 21,300 -800 Descending Atlanta Center
Wed 08:04:54 AM 35.0644 -83.2167 189° South 315 362 20,400 -650 Descending Atlanta Center
Wed 08:05:54 AM 34.9792 -83.2378 191° South 315 362 20,000 -200 Descending Atlanta Center
Wed 08:06:54 AM 34.8958 -83.2589 192° South 315 362 20,000  Level Atlanta Center
Wed 08:07:54 AM 34.8144 -83.2722 188° South 315 362 20,000  Level Atlanta Center
Wed 08:08:54 AM 34.7269 -83.2933 191° South 315 362 20,000 -400 Level Atlanta Center
Wed 08:09:54 AM 34.6542 -83.3317 203° Southwest 309 356 19,200 -1,250 Descending Atlanta Center
Wed 08:10:54 AM 34.5856 -83.3953 217° Southwest 310 357 17,500 -1,900 Descending Atlanta Center
Wed 08:11:54 AM 34.5214 -83.4564 218° Southwest 310 357 15,400 -1,750 Descending Atlanta Center
Wed 08:12:54 AM 34.4569 -83.5122 216° Southwest 292 336 14,000 -700 Descending Atlanta Center
Wed 08:13:54 AM 34.3964 -83.5681 217° Southwest 286 329 14,000  Level Atlanta Center
Wed 08:14:54 AM 34.3300 -83.6264 216° Southwest 301 346 14,000  Level Atlanta Center
Wed 08:15:54 AM 34.2592 -83.6919 217° Southwest 311 358 14,000  Level Atlanta Center
Wed 08:16:54 AM 34.1842 -83.7575 216° Southwest 321 369 14,000  Level Atlanta Center
Wed 08:17:54 AM 34.1239 -83.8106 216° Southwest 321 369 14,000  Level Atlanta Center
Wed 08:18:54 AM 34.0633 -83.8708 220° Southwest 299 344 14,000 -1,046 Level Atlanta Center
Wed 08:19:43 AM 34.0000 -83.9333 219° Southwest 276 318 12,100 -1,101 Descending Atlanta TRACON
Wed 08:20:43 AM 33.9500 -83.9833 220° Southwest 265 305 12,000 -53 Descending Atlanta TRACON
Wed 08:21:37 AM 33.9000 -84.0333 220° Southwest 270 311 12,000  Level Atlanta TRACON
Wed 08:22:38 AM 33.8500 -84.1000 228° Southwest 274 315 12,000  Level Atlanta TRACON
Wed 08:23:37 AM 33.7833 -84.1500 212° Southwest 278 320 12,000  Level Atlanta TRACON
Wed 08:24:38 AM 33.7333 -84.2167 228° Southwest 291 335 12,000 -248 Level Atlanta TRACON
Wed 08:25:38 AM 33.7333 -84.3167 270° West 293 337 11,500 -1,200 Descending Atlanta TRACON
Wed 08:26:38 AM 33.7333 -84.4000 270° West 291 335 9,600 -1,300 Descending Atlanta TRACON
Wed 08:27:38 AM 33.7333 -84.5000 270° West 246 283 8,900 -1,150 Descending Atlanta TRACON
Wed 08:28:38 AM 33.7333 -84.5833 270° West 237 273 7,300 -1,500 Descending Atlanta TRACON
Wed 08:29:38 AM 33.7333 -84.6500 270° West 235 270 5,900 -1,100 Descending Atlanta TRACON
Wed 08:30:38 AM 33.7333 -84.7333 270° West 227 261 5,100 -474 Descending Atlanta TRACON
Wed 08:31:32 AM 33.7333 -84.8000 270° West 242 278 5,000 -53 Descending Atlanta TRACON
Wed 08:32:32 AM 33.7167 -84.8667 253° West 233 268 5,000 50 Level Atlanta TRACON
Wed 08:33:32 AM 33.6667 -84.8500 164° South 170 196 5,100  Climbing Atlanta TRACON
Wed 08:34:38 AM 33.6500 -84.8000 112° Southeast 170 196 5,000 -48 Descending Atlanta TRACON
Wed 08:35:38 AM 33.6500 -84.7333 90° East 181 208 5,000  Level Atlanta TRACON
Wed 08:36:38 AM 33.6500 -84.6833 90° East 176 203 5,000 -550 Level Atlanta TRACON
Wed 08:37:38 AM 33.6500 -84.6167 90° East 174 200 3,900 -1,000 Descending Atlanta TRACON
Wed 08:38:38 AM 33.6500 -84.5667 90° East 179 206 3,000 -850 Descending Atlanta TRACON
Wed 08:39:38 AM 33.6500 -84.5167 90° East 143 165 2,200 -750 Descending Atlanta TRACON
Wed 08:40:38 AM 33.6500 -84.4667 90° East 140 161 1,500 -700 Descending Atlanta TRACON
Wed 08:42:00 AM 33.6367 -84.4279 64° Northeast  Level Estimated

Login

Don't have an account? Register now (free) for customized features, flight alerts, and more!